SKY27 RJTT-RJFF
Flight info
| Callsign | SKY27 |
|---|---|
| Flight time | N/A |
| Altitude | 38000 |
| Route | NINOX Y28 IPLES Y207 ARASI Y20 KIRIN |
| Aircraft | B738/M-SDFGIRWYZ/S |
Departure
| Time | N/A |
|---|---|
| Airport | Tokyo Haneda International Airport (RJTT) |
Arrival
| Time | 2026-05-07 12:25 |
|---|---|
| Airport | Fukuoka Airport (RJFF) |
| Time | Latitude | Longitude | Altitude | Speed | Heading |
|---|---|---|---|---|---|
| 2026-05-07 11:12 | 35.13705 | 135.53138 | 35932 ft | 375 kts | 254° |
| 2026-05-07 11:12 | 35.13184 | 135.50058 | 35938 ft | 375 kts | 254° |
| 2026-05-07 11:13 | 35.12117 | 135.43776 | 35945 ft | 375 kts | 254° |
| 2026-05-07 11:13 | 35.11053 | 135.37540 | 35935 ft | 375 kts | 254° |
| 2026-05-07 11:14 | 35.09993 | 135.31342 | 35941 ft | 375 kts | 254° |
| 2026-05-07 11:14 | 35.08921 | 135.25099 | 36139 ft | 376 kts | 254° |
| 2026-05-07 11:15 | 35.08381 | 135.21970 | 36258 ft | 376 kts | 254° |
| 2026-05-07 11:15 | 35.07842 | 135.18850 | 36432 ft | 375 kts | 253° |
| 2026-05-07 11:15 | 35.07305 | 135.15741 | 36620 ft | 374 kts | 253° |
| 2026-05-07 11:15 | 35.06767 | 135.12636 | 36731 ft | 373 kts | 253° |
| 2026-05-07 11:16 | 35.06231 | 135.09555 | 36921 ft | 371 kts | 253° |
| 2026-05-07 11:16 | 35.05699 | 135.06484 | 37099 ft | 370 kts | 253° |
| 2026-05-07 11:16 | 35.04633 | 135.00340 | 37355 ft | 370 kts | 253° |
| 2026-05-07 11:17 | 35.04102 | 134.97288 | 37730 ft | 363 kts | 253° |
| 2026-05-07 11:17 | 35.03580 | 134.94297 | 37900 ft | 362 kts | 253° |
| 2026-05-07 11:17 | 35.02530 | 134.88312 | 37929 ft | 359 kts | 252° |
| 2026-05-07 11:18 | 35.01490 | 134.82394 | 37950 ft | 355 kts | 253° |
| 2026-05-07 11:18 | 35.00454 | 134.76514 | 37942 ft | 354 kts | 253° |
| 2026-05-07 11:19 | 34.99421 | 134.70665 | 37936 ft | 352 kts | 253° |
| 2026-05-07 11:19 | 34.98335 | 134.64825 | 37949 ft | 355 kts | 252° |
| 2026-05-07 11:20 | 34.97161 | 134.58931 | 37950 ft | 359 kts | 252° |
| 2026-05-07 11:20 | 34.95974 | 134.52975 | 37948 ft | 363 kts | 252° |
| 2026-05-07 11:21 | 34.94782 | 134.46973 | 37951 ft | 365 kts | 252° |
| 2026-05-07 11:21 | 34.93587 | 134.40955 | 37943 ft | 366 kts | 252° |
| 2026-05-07 11:22 | 34.92395 | 134.34958 | 37934 ft | 365 kts | 252° |
| 2026-05-07 11:22 | 34.91206 | 134.28993 | 37927 ft | 360 kts | 252° |
| 2026-05-07 11:23 | 34.90027 | 134.23097 | 37932 ft | 357 kts | 252° |
| 2026-05-07 11:23 | 34.88850 | 134.17233 | 37949 ft | 357 kts | 252° |
| 2026-05-07 11:24 | 34.87660 | 134.11324 | 37950 ft | 362 kts | 252° |
| 2026-05-07 11:24 | 34.86451 | 134.05335 | 37948 ft | 367 kts | 253° |
| 2026-05-07 11:25 | 34.85224 | 133.99263 | 37948 ft | 372 kts | 253° |
| 2026-05-07 11:25 | 34.83981 | 133.93130 | 37933 ft | 372 kts | 253° |
| 2026-05-07 11:26 | 34.82752 | 133.87078 | 37924 ft | 364 kts | 253° |
| 2026-05-07 11:26 | 34.82243 | 133.80952 | 37960 ft | 372 kts | 271° |
| 2026-05-07 11:27 | 34.83551 | 133.74768 | 37945 ft | 386 kts | 286° |
| 2026-05-07 11:27 | 34.84843 | 133.71849 | 37950 ft | 399 kts | 296° |
| 2026-05-07 11:27 | 34.86656 | 133.69217 | 37938 ft | 415 kts | 308° |
| 2026-05-07 11:28 | 34.88958 | 133.67075 | 37949 ft | 431 kts | 321° |
| 2026-05-07 11:28 | 34.91779 | 133.65520 | 37940 ft | 449 kts | 335° |
| 2026-05-07 11:28 | 34.94853 | 133.64790 | 37951 ft | 465 kts | 349° |
| 2026-05-07 11:28 | 34.98184 | 133.64973 | 37936 ft | 482 kts | 5° |
| 2026-05-07 11:29 | 35.01385 | 133.66149 | 37945 ft | 494 kts | 20° |
| 2026-05-07 11:29 | 35.04355 | 133.68342 | 37946 ft | 505 kts | 37° |
| 2026-05-07 11:29 | 35.06839 | 133.71465 | 37946 ft | 510 kts | 52° |
| 2026-05-07 11:29 | 35.08622 | 133.75136 | 37924 ft | 511 kts | 69° |
| 2026-05-07 11:30 | 35.10426 | 133.83484 | 37934 ft | 507 kts | 80° |
| 2026-05-07 11:30 | 35.11991 | 133.91838 | 37925 ft | 503 kts | 78° |
| 2026-05-07 11:31 | 35.13139 | 134.00173 | 37926 ft | 491 kts | 101° |
| 2026-05-07 11:31 | 35.12490 | 134.04193 | 37932 ft | 477 kts | 117° |
| 2026-05-07 11:31 | 35.11088 | 134.07783 | 37961 ft | 461 kts | 131° |
| 2026-05-07 11:32 | 35.06739 | 134.13142 | 37952 ft | 434 kts | 158° |
| 2026-05-07 11:32 | 35.04078 | 134.14737 | 37937 ft | 421 kts | 171° |
| 2026-05-07 11:32 | 35.01283 | 134.15565 | 37950 ft | 408 kts | 182° |
| 2026-05-07 11:33 | 34.98492 | 134.15655 | 37945 ft | 397 kts | 193° |
| 2026-05-07 11:33 | 34.93311 | 134.13854 | 37949 ft | 383 kts | 213° |
| 2026-05-07 11:34 | 34.89218 | 134.09903 | 37940 ft | 373 kts | 231° |
| 2026-05-07 11:34 | 34.86428 | 134.04702 | 37923 ft | 366 kts | 248° |
| 2026-05-07 11:35 | 34.85054 | 133.98755 | 37932 ft | 364 kts | 254° |
| 2026-05-07 11:35 | 34.83898 | 133.92763 | 37934 ft | 363 kts | 253° |
| 2026-05-07 11:36 | 34.82691 | 133.86768 | 37936 ft | 367 kts | 253° |
| 2026-05-07 11:36 | 34.82248 | 133.80594 | 37969 ft | 379 kts | 272° |
| 2026-05-07 11:37 | 34.83789 | 133.74311 | 37941 ft | 399 kts | 290° |
| 2026-05-07 11:37 | 34.85273 | 133.71401 | 37932 ft | 412 kts | 301° |
| 2026-05-07 11:37 | 34.87307 | 133.68869 | 37934 ft | 427 kts | 314° |
| 2026-05-07 11:37 | 34.89859 | 133.66913 | 37949 ft | 443 kts | 328° |
| 2026-05-07 11:38 | 34.92832 | 133.65705 | 37937 ft | 460 kts | 342° |
| 2026-05-07 11:38 | 34.96062 | 133.65403 | 37944 ft | 474 kts | 357° |
| 2026-05-07 11:38 | 34.99353 | 133.66107 | 37941 ft | 487 kts | 13° |
| 2026-05-07 11:38 | 35.02444 | 133.67845 | 37928 ft | 494 kts | 30° |
| 2026-05-07 11:39 | 35.05081 | 133.70534 | 37931 ft | 495 kts | 46° |
| 2026-05-07 11:39 | 35.07122 | 133.73910 | 37943 ft | 495 kts | 61° |
| 2026-05-07 11:39 | 35.08408 | 133.77776 | 37940 ft | 492 kts | 78° |
| 2026-05-07 11:40 | 35.09939 | 133.85917 | 37933 ft | 493 kts | 79° |
| 2026-05-07 11:40 | 35.11244 | 133.92695 | 37954 ft | 493 kts | 78° |
| 2026-05-07 11:41 | 35.12129 | 134.02275 | 37973 ft | 481 kts | 105° |
| 2026-05-07 11:41 | 35.10359 | 134.08570 | 37954 ft | 464 kts | 129° |
| 2026-05-07 11:41 | 35.08431 | 134.11633 | 37930 ft | 449 kts | 145° |
| 2026-05-07 11:42 | 35.06015 | 134.13924 | 37949 ft | 433 kts | 159° |
| 2026-05-07 11:42 | 35.03312 | 134.15404 | 37943 ft | 420 kts | 172° |
| 2026-05-07 11:42 | 35.00498 | 134.16096 | 37949 ft | 408 kts | 184° |
| 2026-05-07 11:42 | 34.97701 | 134.16046 | 37947 ft | 398 kts | 195° |
| 2026-05-07 11:43 | 34.95031 | 134.15306 | 37940 ft | 390 kts | 205° |
| 2026-05-07 11:43 | 34.92587 | 134.13938 | 37947 ft | 385 kts | 216° |
| 2026-05-07 11:43 | 34.90450 | 134.12016 | 37942 ft | 380 kts | 226° |
| 2026-05-07 11:44 | 34.87173 | 134.07014 | 37938 ft | 379 kts | 242° |
| 2026-05-07 11:44 | 34.85475 | 134.00943 | 37947 ft | 381 kts | 254° |
| 2026-05-07 11:45 | 34.84271 | 133.94668 | 37937 ft | 381 kts | 255° |
| 2026-05-07 11:45 | 34.83028 | 133.88416 | 37938 ft | 379 kts | 254° |
| 2026-05-07 11:46 | 34.81748 | 133.82203 | 37939 ft | 379 kts | 253° |
| 2026-05-07 11:46 | 34.80431 | 133.75966 | 37948 ft | 382 kts | 254° |
| 2026-05-07 11:47 | 34.79098 | 133.69678 | 37945 ft | 385 kts | 253° |
| 2026-05-07 11:47 | 34.77763 | 133.63381 | 37945 ft | 388 kts | 254° |
| 2026-05-07 11:48 | 34.76410 | 133.57006 | 37931 ft | 391 kts | 254° |
| 2026-05-07 11:48 | 34.75048 | 133.50599 | 37937 ft | 391 kts | 254° |
| 2026-05-07 11:49 | 34.73681 | 133.44194 | 37938 ft | 391 kts | 254° |
| 2026-05-07 11:49 | 34.72316 | 133.37810 | 37932 ft | 390 kts | 254° |
| 2026-05-07 11:50 | 34.70948 | 133.31432 | 37932 ft | 389 kts | 254° |
| 2026-05-07 11:50 | 34.69581 | 133.25079 | 37932 ft | 388 kts | 254° |
| 2026-05-07 11:51 | 34.68205 | 133.18701 | 37943 ft | 393 kts | 254° |
| 2026-05-07 11:51 | 34.66807 | 133.12241 | 37939 ft | 398 kts | 254° |
| 2026-05-07 11:52 | 34.65390 | 133.05707 | 37943 ft | 402 kts | 254° |
| 2026-05-07 11:52 | 34.63952 | 132.99097 | 37924 ft | 407 kts | 255° |
| 2026-05-07 11:53 | 34.62499 | 132.92437 | 37941 ft | 410 kts | 255° |
| 2026-05-07 11:53 | 34.61034 | 132.85737 | 37930 ft | 409 kts | 255° |
| 2026-05-07 11:54 | 34.59583 | 132.79122 | 37926 ft | 401 kts | 255° |
| 2026-05-07 11:54 | 34.58152 | 132.72617 | 37932 ft | 398 kts | 255° |
| 2026-05-07 11:55 | 34.56726 | 132.66151 | 37931 ft | 396 kts | 255° |
| 2026-05-07 11:55 | 34.55297 | 132.59692 | 37934 ft | 398 kts | 255° |
| 2026-05-07 11:56 | 34.53859 | 132.53204 | 37936 ft | 403 kts | 255° |
| 2026-05-07 11:56 | 34.52395 | 132.46616 | 37929 ft | 406 kts | 255° |
| 2026-05-07 11:57 | 34.50916 | 132.39990 | 37931 ft | 407 kts | 255° |
| 2026-05-07 11:57 | 34.49431 | 132.33362 | 37938 ft | 408 kts | 255° |
| 2026-05-07 11:58 | 34.47942 | 132.26724 | 37933 ft | 408 kts | 255° |
| 2026-05-07 11:58 | 34.46456 | 132.20118 | 37936 ft | 404 kts | 255° |
| 2026-05-07 11:59 | 34.44976 | 132.13566 | 37946 ft | 402 kts | 255° |
| 2026-05-07 11:59 | 34.43499 | 132.07050 | 37938 ft | 400 kts | 255° |
| 2026-05-07 12:00 | 34.42026 | 132.00559 | 37916 ft | 398 kts | 255° |
| 2026-05-07 12:00 | 34.40548 | 131.94065 | 37384 ft | 403 kts | 255° |
| 2026-05-07 12:00 | 34.39805 | 131.90806 | 36808 ft | 401 kts | 255° |
| 2026-05-07 12:01 | 34.39060 | 131.87547 | 36271 ft | 400 kts | 255° |
| 2026-05-07 12:01 | 34.38319 | 131.84306 | 35688 ft | 400 kts | 255° |
| 2026-05-07 12:01 | 34.37575 | 131.81058 | 35102 ft | 401 kts | 255° |
| 2026-05-07 12:01 | 34.36828 | 131.77797 | 34486 ft | 403 kts | 255° |
| 2026-05-07 12:02 | 34.36076 | 131.74519 | 33828 ft | 406 kts | 255° |
| 2026-05-07 12:02 | 34.35317 | 131.71216 | 33132 ft | 407 kts | 255° |
| 2026-05-07 12:02 | 34.34558 | 131.67916 | 32458 ft | 409 kts | 255° |
| 2026-05-07 12:02 | 34.33792 | 131.64596 | 31782 ft | 410 kts | 255° |
| 2026-05-07 12:03 | 34.33025 | 131.61272 | 31168 ft | 411 kts | 255° |
| 2026-05-07 12:03 | 34.32256 | 131.57953 | 30642 ft | 409 kts | 255° |
| 2026-05-07 12:03 | 34.31491 | 131.54650 | 30173 ft | 406 kts | 254° |
| 2026-05-07 12:03 | 34.30733 | 131.51389 | 29710 ft | 402 kts | 254° |
| 2026-05-07 12:04 | 34.29981 | 131.48151 | 29202 ft | 398 kts | 254° |
| 2026-05-07 12:04 | 34.29245 | 131.44987 | 28696 ft | 393 kts | 254° |
| 2026-05-07 12:04 | 34.28505 | 131.41808 | 28051 ft | 393 kts | 254° |
| 2026-05-07 12:04 | 34.27765 | 131.38631 | 27495 ft | 391 kts | 254° |
| 2026-05-07 12:05 | 34.27022 | 131.35446 | 27039 ft | 387 kts | 254° |
| 2026-05-07 12:05 | 34.26313 | 131.32411 | 26619 ft | 382 kts | 254° |
| 2026-05-07 12:05 | 34.25577 | 131.29262 | 25982 ft | 381 kts | 253° |
| 2026-05-07 12:05 | 34.24850 | 131.26163 | 25290 ft | 384 kts | 253° |
| 2026-05-07 12:06 | 34.24121 | 131.23052 | 24604 ft | 385 kts | 253° |
| 2026-05-07 12:06 | 34.23388 | 131.19929 | 23949 ft | 387 kts | 253° |
| 2026-05-07 12:06 | 34.22662 | 131.16844 | 23249 ft | 387 kts | 253° |
| 2026-05-07 12:06 | 34.21925 | 131.13711 | 22473 ft | 388 kts | 253° |
| 2026-05-07 12:07 | 34.21188 | 131.10585 | 21657 ft | 388 kts | 253° |
| 2026-05-07 12:07 | 34.20445 | 131.07432 | 20790 ft | 391 kts | 253° |
| 2026-05-07 12:07 | 34.19696 | 131.04262 | 19988 ft | 392 kts | 253° |
| 2026-05-07 12:07 | 34.18912 | 131.01116 | 19330 ft | 390 kts | 249° |
| 2026-05-07 12:08 | 34.17823 | 130.98146 | 18767 ft | 385 kts | 243° |
| 2026-05-07 12:08 | 34.16654 | 130.95384 | 18337 ft | 378 kts | 242° |
| 2026-05-07 12:08 | 34.15396 | 130.92511 | 17812 ft | 372 kts | 242° |
| 2026-05-07 12:08 | 34.14188 | 130.89781 | 17291 ft | 366 kts | 242° |
| 2026-05-07 12:09 | 34.12992 | 130.87103 | 16777 ft | 359 kts | 243° |
| 2026-05-07 12:09 | 34.11807 | 130.84473 | 16273 ft | 355 kts | 242° |
| 2026-05-07 12:09 | 34.10632 | 130.81872 | 15800 ft | 351 kts | 242° |
| 2026-05-07 12:09 | 34.09468 | 130.79304 | 15316 ft | 347 kts | 242° |
| 2026-05-07 12:10 | 34.08312 | 130.76763 | 14892 ft | 343 kts | 242° |
| 2026-05-07 12:10 | 34.07173 | 130.74271 | 14466 ft | 337 kts | 242° |
| 2026-05-07 12:10 | 34.06051 | 130.71828 | 13990 ft | 328 kts | 242° |
| 2026-05-07 12:10 | 34.04956 | 130.69453 | 13451 ft | 321 kts | 242° |
| 2026-05-07 12:11 | 34.03875 | 130.67119 | 12861 ft | 317 kts | 242° |
| 2026-05-07 12:11 | 34.02797 | 130.64792 | 12237 ft | 316 kts | 242° |
| 2026-05-07 12:11 | 34.01737 | 130.62502 | 11747 ft | 309 kts | 242° |
| 2026-05-07 12:11 | 34.00723 | 130.60309 | 11306 ft | 303 kts | 242° |
| 2026-05-07 12:12 | 33.99714 | 130.58128 | 11053 ft | 291 kts | 242° |
| 2026-05-07 12:12 | 33.98745 | 130.56037 | 10799 ft | 280 kts | 242° |
| 2026-05-07 12:12 | 33.97811 | 130.54025 | 10523 ft | 271 kts | 242° |
| 2026-05-07 12:12 | 33.96890 | 130.52040 | 10074 ft | 271 kts | 242° |
| 2026-05-07 12:13 | 33.95977 | 130.50067 | 9644 ft | 268 kts | 242° |
| 2026-05-07 12:13 | 33.95084 | 130.48136 | 9184 ft | 267 kts | 242° |
| 2026-05-07 12:13 | 33.94188 | 130.46188 | 8722 ft | 265 kts | 242° |
| 2026-05-07 12:13 | 33.93293 | 130.44241 | 8354 ft | 265 kts | 242° |
| 2026-05-07 12:14 | 33.92403 | 130.42296 | 8012 ft | 260 kts | 242° |
| 2026-05-07 12:14 | 33.91542 | 130.40410 | 7570 ft | 260 kts | 242° |
| 2026-05-07 12:14 | 33.90676 | 130.38506 | 7141 ft | 259 kts | 242° |
| 2026-05-07 12:14 | 33.89816 | 130.36605 | 6706 ft | 259 kts | 242° |
| 2026-05-07 12:15 | 33.88954 | 130.34699 | 6241 ft | 260 kts | 240° |
| 2026-05-07 12:15 | 33.87717 | 130.33134 | 5719 ft | 262 kts | 214° |
| 2026-05-07 12:15 | 33.86153 | 130.32000 | 5303 ft | 263 kts | 212° |
| 2026-05-07 12:15 | 33.84586 | 130.30878 | 4933 ft | 260 kts | 212° |
| 2026-05-07 12:16 | 33.83043 | 130.29772 | 4558 ft | 257 kts | 212° |
| 2026-05-07 12:16 | 33.81525 | 130.28681 | 4282 ft | 251 kts | 212° |
| 2026-05-07 12:16 | 33.80039 | 130.27613 | 3968 ft | 247 kts | 212° |
| 2026-05-07 12:16 | 33.78577 | 130.26562 | 3638 ft | 244 kts | 212° |
| 2026-05-07 12:17 | 33.77122 | 130.25516 | 3267 ft | 243 kts | 212° |
| 2026-05-07 12:17 | 33.75675 | 130.24473 | 2895 ft | 242 kts | 212° |
| 2026-05-07 12:17 | 33.74238 | 130.23435 | 2601 ft | 239 kts | 212° |
| 2026-05-07 12:17 | 33.72811 | 130.22409 | 2408 ft | 238 kts | 211° |
| 2026-05-07 12:18 | 33.71240 | 130.21869 | 2173 ft | 239 kts | 178° |
| 2026-05-07 12:18 | 33.69730 | 130.22611 | 2036 ft | 239 kts | 140° |
| 2026-05-07 12:18 | 33.68655 | 130.24077 | 1993 ft | 227 kts | 132° |
| 2026-05-07 12:18 | 33.67688 | 130.25507 | 1980 ft | 216 kts | 132° |
| 2026-05-07 12:19 | 33.66761 | 130.26890 | 1991 ft | 211 kts | 132° |
| 2026-05-07 12:19 | 33.65855 | 130.28247 | 2011 ft | 206 kts | 132° |
| 2026-05-07 12:19 | 33.64956 | 130.29587 | 1989 ft | 206 kts | 132° |
| 2026-05-07 12:19 | 33.64070 | 130.30906 | 2020 ft | 196 kts | 132° |
| 2026-05-07 12:20 | 33.63232 | 130.32154 | 1918 ft | 191 kts | 132° |
| 2026-05-07 12:20 | 33.62422 | 130.33361 | 1847 ft | 186 kts | 131° |
| 2026-05-07 12:20 | 33.61608 | 130.34565 | 1769 ft | 186 kts | 132° |
| 2026-05-07 12:20 | 33.60780 | 130.35756 | 1699 ft | 187 kts | 133° |
| 2026-05-07 12:21 | 33.59936 | 130.36908 | 1608 ft | 180 kts | 134° |
| 2026-05-07 12:21 | 33.59145 | 130.38022 | 1461 ft | 170 kts | 132° |
| 2026-05-07 12:21 | 33.58364 | 130.39075 | 1436 ft | 166 kts | 141° |
| 2026-05-07 12:21 | 33.57425 | 130.39858 | 1466 ft | 165 kts | 151° |
| 2026-05-07 12:22 | 33.56430 | 130.40556 | 1497 ft | 167 kts | 152° |
| 2026-05-07 12:22 | 33.55428 | 130.41254 | 1441 ft | 165 kts | 152° |
| 2026-05-07 12:22 | 33.54449 | 130.41950 | 1243 ft | 159 kts | 149° |
| 2026-05-07 12:22 | 33.53629 | 130.42764 | 1249 ft | 153 kts | 130° |
| 2026-05-07 12:23 | 33.53133 | 130.43927 | 1245 ft | 158 kts | 107° |
| 2026-05-07 12:23 | 33.53065 | 130.45250 | 1256 ft | 162 kts | 82° |
| 2026-05-07 12:23 | 33.53444 | 130.46507 | 1134 ft | 158 kts | 56° |
| 2026-05-07 12:23 | 33.54239 | 130.47308 | 1029 ft | 147 kts | 24° |
| 2026-05-07 12:24 | 33.55184 | 130.47376 | 701 ft | 140 kts | 338° |
| 2026-05-07 12:24 | 33.56044 | 130.46784 | 426 ft | 141 kts | 332° |
| 2026-05-07 12:24 | 33.56893 | 130.46215 | 230 ft | 139 kts | 333° |
| 2026-05-07 12:24 | 33.57741 | 130.45646 | 49 ft | 137 kts | 332° |
| 2026-05-07 12:25 | 33.58479 | 130.45146 | 35 ft | 102 kts | 330° |
| 2026-05-07 12:25 | 33.58953 | 130.44825 | 29 ft | 34 kts | 332° |
| 2026-05-07 12:25 | 33.59123 | 130.44770 | 27 ft | 24 kts | 354° |
| 2026-05-07 12:25 | 33.59270 | 130.44768 | 24 ft | 6 kts | 0° |
| 2026-05-07 12:26 | 33.59320 | 130.44768 | 22 ft | 11 kts | 0° |
| 2026-05-07 12:26 | 33.59403 | 130.44741 | 23 ft | 13 kts | 332° |
| 2026-05-07 12:26 | 33.59485 | 130.44687 | 27 ft | 15 kts | 330° |
| 2026-05-07 12:26 | 33.59587 | 130.44617 | 27 ft | 20 kts | 330° |
| 2026-05-07 12:27 | 33.59711 | 130.44533 | 26 ft | 20 kts | 330° |
| 2026-05-07 12:27 | 33.59830 | 130.44452 | 26 ft | 19 kts | 332° |
| 2026-05-07 12:27 | 33.59896 | 130.44445 | 23 ft | 8 kts | 46° |
| 2026-05-07 12:27 | 33.59917 | 130.44479 | 23 ft | 8 kts | 37° |
| 2026-05-07 12:28 | 33.59988 | 130.44479 | 23 ft | 8 kts | 52° |
| 2026-05-07 12:28 | 33.60011 | 130.44523 | 23 ft | 2 kts | 60° |
| 2026-05-07 12:28 | 33.60011 | 130.44524 | 23 ft | 0 kts | 60° |